Time;durP1;ratioP1;P1;durP2;ratioP2;P2;SDS_P1;SDS_P2;PMS_P1;PMS_P2;Temp;Humidity;BMP_temperature;BMP_pressure;BME280_temperature;BME280_humidity;BME280_pressure;Samples;Min_cycle;Max_cycle;Signal;HPM_P1;HPM_P2
2021/07/10 00:00:33;;;;;;;14.15;5.01;;;;;;;20.85;58.20;100336.64;349157;152;865012;-59
2021/07/10 00:01:34;;;;;;;9.04;5.10;;;;;;;20.92;58.44;100339.00;348786;152;858011;-58
2021/07/10 00:02:36;;;;;;;6.53;5.13;;;;;;;20.96;57.80;100340.56;349471;151;864934;-58
2021/07/10 00:03:39;;;;;;;9.69;5.18;;;;;;;20.94;58.11;100338.02;349667;151;857381;-58
2021/07/10 00:04:41;;;;;;;9.24;5.59;;;;;;;20.97;57.86;100334.38;350123;151;864898;-58
2021/07/10 00:05:43;;;;;;;9.64;5.25;;;;;;;20.94;57.88;100340.66;346500;151;864823;-58
2021/07/10 00:06:45;;;;;;;9.20;5.41;;;;;;;20.86;58.00;100338.35;349249;151;857725;-58
2021/07/10 00:07:48;;;;;;;9.63;5.33;;;;;;;20.83;58.34;100335.86;350378;151;859190;-59
2021/07/10 00:08:50;;;;;;;8.59;5.22;;;;;;;20.83;58.45;100332.38;348944;151;866604;-58
2021/07/10 00:09:52;;;;;;;10.13;5.59;;;;;;;20.84;58.63;100337.56;349254;151;857298;-58
2021/07/10 00:10:54;;;;;;;13.14;5.59;;;;;;;20.84;58.63;100337.56;347148;151;866827;-58
2021/07/10 00:11:56;;;;;;;8.56;5.10;;;;;;;20.85;59.09;100336.64;343971;152;864991;-59
2021/07/10 00:12:58;;;;;;;10.48;5.19;;;;;;;20.90;58.97;100331.19;349579;151;865079;-59
2021/07/10 00:14:00;;;;;;;10.56;5.43;;;;;;;20.96;58.70;100336.17;351640;151;857400;-58
2021/07/10 00:15:06;;;;;;;9.44;5.73;;;;;;;20.98;58.54;100330.83;349490;152;864944;-58
2021/07/10 00:16:09;;;;;;;9.74;5.22;;;;;;;20.96;58.80;100336.17;347114;151;865564;-58
2021/07/10 00:17:11;;;;;;;7.59;5.09;;;;;;;20.95;59.16;100333.59;351164;151;857459;-58
2021/07/10 00:18:13;;;;;;;6.84;5.34;;;;;;;20.95;59.11;100328.33;349628;151;857434;-59
2021/07/10 00:19:15;;;;;;;8.66;4.74;;;;;;;20.99;59.25;100335.16;344995;151;865366;-58
2021/07/10 00:20:18;;;;;;;7.20;4.89;;;;;;;21.05;59.14;100326.15;348778;151;865638;-59
2021/07/10 00:21:19;;;;;;;7.02;5.27;;;;;;;21.14;59.02;100323.93;348306;151;857376;-59
2021/07/10 00:22:21;;;;;;;11.00;5.80;;;;;;;21.21;58.86;100329.78;349130;151;857270;-59
2021/07/10 00:23:23;;;;;;;7.36;5.09;;;;;;;21.28;58.47;100327.73;348437;151;864957;-58
2021/07/10 00:24:25;;;;;;;9.73;5.27;;;;;;;21.33;58.25;100327.50;350279;151;864695;-59
2021/07/10 00:25:27;;;;;;;10.64;6.04;;;;;;;21.40;58.43;100324.52;348300;151;858248;-59
2021/07/10 00:26:29;;;;;;;10.57;5.76;;;;;;;21.50;58.19;100324.08;345586;151;865113;-58
2021/07/10 00:27:31;;;;;;;8.65;5.75;;;;;;;21.59;57.74;100321.00;348331;151;866302;-58
2021/07/10 00:28:33;;;;;;;11.71;6.33;;;;;;;21.71;57.47;100314.30;348649;151;858207;-58
2021/07/10 00:29:34;;;;;;;9.07;5.56;;;;;;;21.78;57.26;100317.50;344339;152;865241;-58
2021/07/10 00:30:37;;;;;;;9.36;5.75;;;;;;;21.79;57.57;100316.58;348966;151;867059;-58
2021/07/10 00:31:39;;;;;;;9.69;5.15;;;;;;;21.83;57.78;100316.36;350812;151;857149;-59
2021/07/10 00:32:41;;;;;;;11.24;5.74;;;;;;;21.85;57.42;100308.36;347601;151;867136;-57
2021/07/10 00:33:44;;;;;;;10.41;5.51;;;;;;;21.85;57.17;100314.50;341943;154;866753;-59
2021/07/10 00:34:46;;;;;;;11.18;5.19;;;;;;;21.86;57.01;100313.58;342076;154;858245;-59
2021/07/10 00:35:48;;;;;;;13.99;5.76;;;;;;;21.84;56.65;100312.80;347893;151;857439;-58
2021/07/10 00:36:51;;;;;;;8.53;5.24;;;;;;;21.74;56.63;100312.38;353765;151;865413;-58
2021/07/10 00:37:53;;;;;;;10.70;4.93;;;;;;;21.66;56.84;100311.03;350395;151;857874;-58
2021/07/10 00:38:56;;;;;;;9.76;5.10;;;;;;;21.60;56.88;100318.28;349775;151;868006;-58
2021/07/10 00:39:58;;;;;;;9.73;4.99;;;;;;;21.56;57.16;100319.36;349111;152;867937;-58
2021/07/10 00:41:00;;;;;;;10.60;5.25;;;;;;;21.52;57.25;100309.89;346873;151;857263;-58
2021/07/10 00:42:02;;;;;;;9.86;5.65;;;;;;;21.51;57.28;100302.91;348494;151;859625;-58
2021/07/10 00:43:04;;;;;;;17.10;5.92;;;;;;;21.51;57.28;100302.91;355703;151;857289;-58
2021/07/10 00:44:06;;;;;;;8.52;5.01;;;;;;;21.49;57.02;100312.67;356353;151;857254;-58
2021/07/10 00:45:09;;;;;;;6.14;4.91;;;;;;;21.45;56.91;100306.72;348963;151;864719;-59
2021/07/10 00:46:15;;;;;;;11.13;5.15;;;;;;;21.42;56.83;100306.86;352727;151;867138;-58
2021/07/10 00:47:16;;;;;;;9.15;4.83;;;;;;;21.36;56.75;100309.79;345424;154;857230;-58
2021/07/10 00:48:18;;;;;;;9.41;5.24;;;;;;;21.29;57.19;100300.47;343227;151;865430;-59
2021/07/10 00:49:20;;;;;;;9.71;4.89;;;;;;;21.26;57.37;100301.45;350673;151;859107;-58
2021/07/10 00:50:24;;;;;;;6.96;4.78;;;;;;;21.24;57.42;100307.73;349290;151;865057;-58
2021/07/10 00:51:26;;;;;;;7.44;5.13;;;;;;;21.22;57.25;100304.31;352532;151;859813;-59
2021/07/10 00:52:29;;;;;;;13.13;5.19;;;;;;;21.21;57.37;100303.45;349717;151;868360;-59
2021/07/10 00:53:32;;;;;;;7.39;5.18;;;;;;;21.21;57.44;100299.98;351397;151;865878;-58
2021/07/10 00:54:37;;;;;;;8.52;5.14;;;;;;;21.21;57.38;100308.72;348303;152;857435;-58
2021/07/10 00:55:39;;;;;;;7.53;5.17;;;;;;;21.20;57.22;100301.74;349994;152;859128;-58
2021/07/10 00:56:45;;;;;;;8.34;5.35;;;;;;;21.20;57.28;100304.38;353495;151;857307;-59
2021/07/10 00:57:46;;;;;;;8.16;5.18;;;;;;;21.18;57.16;100302.72;350553;152;865903;-58
2021/07/10 00:58:49;;;;;;;8.70;5.52;;;;;;;21.11;57.04;100303.02;349641;151;864796;-58
2021/07/10 00:59:51;;;;;;;11.16;5.34;;;;;;;21.01;57.55;100301.73;349368;151;859041;-59
2021/07/10 01:00:55;;;;;;;8.33;5.37;;;;;;;20.95;57.83;100294.11;350579;151;857339;-59
2021/07/10 01:01:57;;;;;;;11.72;5.57;;;;;;;;;;350916;152;858953;-59
2021/07/10 01:02:58;;;;;;;10.33;5.88;;;;;;;;;;347329;152;858922;-58
2021/07/10 01:04:00;;;;;;;8.89;5.43;;;;;;;;;;352279;151;857835;-58
2021/07/10 01:05:03;;;;;;;10.21;5.50;;;;;;;;;;349821;151;857312;-59
2021/07/10 01:06:05;;;;;;;9.85;5.56;;;;;;;;;;347534;151;857238;-58
2021/07/10 01:07:06;;;;;;;10.56;5.74;;;;;;;;;;349667;151;865966;-59
2021/07/10 01:08:08;;;;;;;7.46;5.74;;;;;;;;;;354180;151;857963;-58
2021/07/10 01:09:10;;;;;;;10.24;5.47;;;;;;;;;;350340;151;857310;-58
2021/07/10 01:10:12;;;;;;;10.81;5.62;;;;;;;;;;348986;150;857229;-58
2021/07/10 01:11:14;;;;;;;6.98;5.71;;;;;;;;;;349888;151;864978;-58
2021/07/10 01:12:15;;;;;;;13.10;5.71;;;;;;;;;;346263;151;858999;-58
2021/07/10 01:13:17;;;;;;;9.60;5.69;;;;;;;;;;345751;152;858148;-59
2021/07/10 01:14:20;;;;;;;12.51;5.54;;;;;;;;;;350213;151;857489;-58
2021/07/10 01:15:23;;;;;;;8.74;5.15;;;;;;;;;;338066;155;859026;-58
2021/07/10 01:16:26;;;;;;;11.18;5.93;;;;;;;;;;333970;157;866371;-58
2021/07/10 01:17:28;;;;;;;9.51;5.41;;;;;;;;;;340865;155;857374;-58
2021/07/10 01:18:29;;;;;;;8.09;5.56;;;;;;;;;;342116;155;866106;-58
2021/07/10 01:19:31;;;;;;;7.81;5.57;;;;;;;;;;338709;155;858505;-58
2021/07/10 01:20:36;;;;;;;10.11;5.61;;;;;;;;;;340374;155;857421;-59
2021/07/10 01:21:38;;;;;;;11.08;5.62;;;;;;;;;;340821;155;859131;-58
2021/07/10 01:22:40;;;;;;;10.24;5.71;;;;;;;;;;340879;155;857219;-58
2021/07/10 01:23:41;;;;;;;7.85;5.82;;;;;;;;;;341377;155;858880;-58
2021/07/10 01:24:43;;;;;;;7.81;5.19;;;;;;;;;;340577;155;866187;-58
2021/07/10 01:25:45;;;;;;;10.19;6.01;;;;;;;;;;339214;155;858698;-58
2021/07/10 01:26:48;;;;;;;9.52;5.61;;;;;;;;;;334933;157;859276;-56
2021/07/10 01:27:50;;;;;;;8.37;5.66;;;;;;;;;;335992;158;865648;-58
2021/07/10 01:28:52;;;;;;;7.63;5.79;;;;;;;;;;337183;156;858493;-58
2021/07/10 01:29:53;;;;;;;9.05;5.86;;;;;;;;;;337888;157;859729;-58
2021/07/10 01:30:55;;;;;;;8.07;5.41;;;;;;;;;;337344;157;858113;-58
2021/07/10 01:31:58;;;;;;;10.55;5.51;;;;;;;;;;335196;158;860043;-58
2021/07/10 01:32:59;;;;;;;10.56;5.55;;;;;;;;;;336940;157;857332;-58
2021/07/10 01:34:01;;;;;;;6.69;5.21;;;;;;;;;;343294;157;865014;-59
2021/07/10 01:35:03;;;;;;;7.51;5.34;;;;;;;;;;342391;154;857359;-58
2021/07/10 01:36:05;;;;;;;8.88;5.48;;;;;;;;;;342440;154;864924;-58
2021/07/10 01:37:06;;;;;;;10.78;6.05;;;;;;;;;;340461;157;857236;-59
2021/07/10 01:38:09;;;;;;;13.58;5.90;;;;;;;;;;343721;154;865009;-57
2021/07/10 01:39:10;;;;;;;8.91;6.03;;;;;;;;;;340590;155;857387;-58
2021/07/10 01:40:14;;;;;;;9.65;5.90;;;;;;;;;;341073;155;857312;-58
2021/07/10 01:41:16;;;;;;;9.74;5.99;;;;;;;;;;345914;155;857076;-59
2021/07/10 01:42:19;;;;;;;9.47;5.54;;;;;;;;;;342050;154;858912;-58
2021/07/10 01:43:20;;;;;;;10.57;5.88;;;;;;;;;;335369;158;864960;-59
2021/07/10 01:44:22;;;;;;;8.48;5.87;;;;;;;;;;335413;157;865299;-59
2021/07/10 01:45:24;;;;;;;8.81;6.54;;;;;;;;;;336835;157;857241;-58
2021/07/10 01:46:27;;;;;;;10.32;5.78;;;;;;;;;;342487;154;857267;-59
2021/07/10 01:47:28;;;;;;;10.09;5.66;;;;;;;;;;340301;156;857987;-58
2021/07/10 01:48:30;;;;;;;9.15;5.69;;;;;;;;;;342734;154;857170;-58
2021/07/10 01:49:32;;;;;;;8.45;5.94;;;;;;;;;;343418;154;857859;-58
2021/07/10 01:50:34;;;;;;;10.28;6.04;;;;;;;;;;341609;155;866267;-58
2021/07/10 01:51:36;;;;;;;8.97;5.46;;;;;;;;;;339838;154;859128;-58
2021/07/10 01:52:37;;;;;;;11.13;6.17;;;;;;;;;;338906;154;857857;-59
2021/07/10 01:53:39;;;;;;;11.20;6.42;;;;;;;;;;343066;154;857350;-58
2021/07/10 01:54:40;;;;;;;10.09;6.74;;;;;;;;;;342981;155;865344;-58
2021/07/10 01:55:42;;;;;;;8.52;5.66;;;;;;;;;;341088;154;857178;-58
2021/07/10 01:56:44;;;;;;;8.88;6.31;;;;;;;;;;340763;154;857317;-58
2021/07/10 01:57:46;;;;;;;10.51;6.11;;;;;;;;;;346252;154;857213;-58
2021/07/10 01:58:50;;;;;;;8.64;6.74;;;;;;;;;;337427;154;857263;-58
2021/07/10 01:59:51;;;;;;;12.03;6.71;;;;;;;;;;342427;154;857258;-58
2021/07/10 02:00:54;;;;;;;12.84;7.23;;;;;;;;;;343531;154;857846;-58
2021/07/10 02:01:56;;;;;;;10.83;6.35;;;;;;;;;;346251;154;857793;-58
2021/07/10 02:02:57;;;;;;;9.80;6.69;;;;;;;;;;342121;156;858734;-58
2021/07/10 02:03:59;;;;;;;12.56;6.67;;;;;;;;;;341790;154;857720;-58
2021/07/10 02:05:01;;;;;;;19.87;7.49;;;;;;;;;;343089;154;857271;-60
2021/07/10 02:06:03;;;;;;;14.88;6.98;;;;;;;;;;339396;156;857263;-58
2021/07/10 02:07:05;;;;;;;19.69;7.50;;;;;;;;;;340927;154;864910;-58
2021/07/10 02:08:08;;;;;;;17.61;7.06;;;;;;;;;;343180;154;857250;-58
2021/07/10 02:09:10;;;;;;;18.77;7.53;;;;;;;;;;343142;154;857213;-58
2021/07/10 02:10:12;;;;;;;16.01;7.03;;;;;;;;;;345520;154;858680;-58
2021/07/10 02:11:14;;;;;;;12.47;6.79;;;;;;;;;;342471;154;857316;-58
2021/07/10 02:12:15;;;;;;;15.92;6.79;;;;;;;;;;344895;154;857158;-58
2021/07/10 02:13:17;;;;;;;16.16;7.23;;;;;;;;;;342332;156;857324;-57
2021/07/10 02:14:19;;;;;;;19.58;7.64;;;;;;;;;;340993;155;859033;-58
2021/07/10 02:15:21;;;;;;;18.49;7.69;;;;;;;;;;336397;157;859232;-58
2021/07/10 02:16:24;;;;;;;22.94;8.38;;;;;;;;;;332449;157;857311;-58
2021/07/10 02:17:26;;;;;;;13.62;6.94;;;;;;;;;;337590;157;858267;-58
2021/07/10 02:18:27;;;;;;;11.29;6.90;;;;;;;;;;336591;157;866744;-58
2021/07/10 02:19:29;;;;;;;9.54;6.34;;;;;;;;;;336866;157;859125;-58
2021/07/10 02:20:31;;;;;;;13.20;7.49;;;;;;;;;;340786;157;858363;-59
2021/07/10 02:21:34;;;;;;;11.60;6.73;;;;;;;;;;337035;157;857536;-58
2021/07/10 02:22:35;;;;;;;12.00;7.05;;;;;;;;;;336769;157;857397;-58
2021/07/10 02:23:37;;;;;;;13.13;6.69;;;;;;;;;;336022;157;866809;-58
2021/07/10 02:24:38;;;;;;;10.76;6.84;;;;;;;;;;336201;157;857408;-61
2021/07/10 02:25:40;;;;;;;10.10;7.07;;;;;;;;;;335845;157;866560;-59
2021/07/10 02:26:43;;;;;;;12.63;6.57;;;;;;;;;;339007;157;858621;-58
2021/07/10 02:27:44;;;;;;;11.79;6.99;;;;;;;;;;336551;157;857341;-58
2021/07/10 02:28:46;;;;;;;10.35;6.51;;;;;;;;;;335888;158;858602;-58
2021/07/10 02:29:47;;;;;;;13.39;7.61;;;;;;;;;;336527;157;858644;-58
2021/07/10 02:30:50;;;;;;;13.31;7.10;;;;;;;;;;334255;157;858016;-58
2021/07/10 02:31:52;;;;;;;9.97;6.87;;;;;;;;;;337801;157;857496;-58
2021/07/10 02:32:55;;;;;;;11.54;7.44;;;;;;;;;;336310;157;857487;-60
2021/07/10 02:33:57;;;;;;;12.64;7.81;;;;;;;;;;337550;157;857314;-58
2021/07/10 02:34:58;;;;;;;11.92;6.53;;;;;;;;;;337503;158;858893;-58
2021/07/10 02:36:00;;;;;;;16.98;8.04;;;;;;;;;;332237;158;865142;-59
2021/07/10 02:37:02;;;;;;;12.81;7.69;;;;;;;;;;333789;159;857346;-59
2021/07/10 02:38:04;;;;;;;10.79;7.29;;;;;;;;;;333669;160;859048;-60
2021/07/10 02:39:05;;;;;;;11.29;7.05;;;;;;;;;;334209;158;860247;-59
2021/07/10 02:40:08;;;;;;;11.30;7.27;;;;;;;;;;334531;159;859780;-59
2021/07/10 02:41:09;;;;;;;12.28;7.61;;;;;;;;;;335824;158;859741;-57
2021/07/10 02:42:11;;;;;;;13.07;7.00;;;;;;;;;;332894;159;858914;-58
2021/07/10 02:43:13;;;;;;;15.18;6.84;;;;;;;;;;331524;158;857353;-58
2021/07/10 02:44:14;;;;;;;13.58;7.66;;;;;;;;;;333242;159;857280;-58
2021/07/10 02:45:16;;;;;;;11.36;7.06;;;;;;;;;;331868;159;864881;-58
2021/07/10 02:46:18;;;;;;;18.14;7.48;;;;;;;;;;330867;159;857323;-59
2021/07/10 02:47:20;;;;;;;10.51;7.45;;;;;;;;;;333158;159;857349;-58
2021/07/10 02:48:21;;;;;;;13.91;6.59;;;;;;;;;;331426;160;857388;-58
2021/07/10 02:49:23;;;;;;;11.01;7.05;;;;;;;;;;333489;145;857163;-58
2021/07/10 02:50:25;;;;;;;13.90;7.90;;;;;;;;;;357093;150;859407;-58
2021/07/10 02:51:27;;;;;;;14.14;7.60;;;;;;;;;;356272;148;857201;-59
2021/07/10 02:52:29;;;;;;;10.32;7.81;;;;;;;;;;357902;150;865972;-58
2021/07/10 02:53:30;;;;;;;14.12;7.81;;;;;;;;;;357395;147;858780;-58
2021/07/10 02:54:32;;;;;;;13.86;8.20;;;;;;;;;;356991;147;857609;-58
2021/07/10 02:55:34;;;;;;;13.58;7.65;;;;;;;;;;356480;147;860106;-58
2021/07/10 02:56:37;;;;;;;12.41;8.03;;;;;;;;;;358208;147;856636;-58
2021/07/10 02:57:38;;;;;;;9.51;7.03;;;;;;;;;;356064;149;858983;-58
2021/07/10 02:58:40;;;;;;;11.57;7.63;;;;;;;;;;354789;147;859302;-58
2021/07/10 02:59:42;;;;;;;12.42;7.13;;;;;;;;;;356822;147;860219;-58
2021/07/10 03:00:45;;;;;;;13.44;7.69;;;;;;;;;;358126;147;858674;-58
2021/07/10 03:01:46;;;;;;;14.74;8.36;;;;;;;;;;356476;149;857763;-59
2021/07/10 03:02:48;;;;;;;11.60;7.81;;;;;;;;;;354620;150;859621;-57
2021/07/10 03:03:50;;;;;;;12.31;7.84;;;;;;;;;;354727;147;857661;-57
2021/07/10 03:04:53;;;;;;;12.77;7.73;;;;;;;;;;355776;148;859121;-59
2021/07/10 03:05:54;;;;;;;14.23;8.15;;;;;;;;;;351531;150;857335;-59
2021/07/10 03:06:57;;;;;;;12.38;7.73;;;;;;;;;;353209;150;858999;-57
2021/07/10 03:07:59;;;;;;;14.10;7.26;;;;;;;;;;351724;150;867294;-58
2021/07/10 03:09:01;;;;;;;12.62;7.63;;;;;;;;;;351939;151;858662;-59
2021/07/10 03:10:04;;;;;;;10.67;7.56;;;;;;;;;;351932;152;858838;-58
2021/07/10 03:11:06;;;;;;;12.20;7.62;;;;;;;;;;348370;150;866557;-58
2021/07/10 03:12:08;;;;;;;18.70;7.98;;;;;;;;;;352786;150;857385;-58
2021/07/10 03:13:09;;;;;;;11.74;7.44;;;;;;;;;;351910;151;857280;-58
2021/07/10 03:14:11;;;;;;;10.33;7.19;;;;;;;;;;352905;150;857283;-58
2021/07/10 03:15:15;;;;;;;12.67;7.45;;;;;;;;;;352943;150;858914;-59
2021/07/10 03:16:17;;;;;;;13.01;8.22;;;;;;;;;;351375;150;859008;-58
2021/07/10 03:17:19;;;;;;;11.49;7.77;;;;;;;;;;354428;150;857895;-58
2021/07/10 03:18:20;;;;;;;14.62;8.24;;;;;;;;;;351904;150;858616;-59
2021/07/10 03:19:22;;;;;;;11.79;8.57;;;;;;;;;;352643;150;857415;-59
2021/07/10 03:20:24;;;;;;;13.00;8.71;;;;;;;;;;351293;151;857366;-59
2021/07/10 03:21:26;;;;;;;13.11;8.39;;;;;;;;;;352695;150;857736;-58
2021/07/10 03:22:27;;;;;;;15.97;8.61;;;;;;;;;;350703;150;864875;-59
2021/07/10 03:23:29;;;;;;;13.55;9.04;;;;;;;;;;352094;150;857341;-59
2021/07/10 03:24:30;;;;;;;11.83;8.36;;;;;;;;;;353520;150;857383;-60
2021/07/10 03:25:32;;;;;;;14.19;8.79;;;;;;;;;;350869;150;857348;-59
2021/07/10 03:26:34;;;;;;;11.31;8.28;;;;;;;;;;350679;150;857455;-59
2021/07/10 03:27:36;;;;;;;15.51;8.56;;;;;;;;;;351884;150;857343;-59
2021/07/10 03:28:38;;;;;;;14.56;8.96;;;;;;;;;;354452;150;857369;-59
2021/07/10 03:29:40;;;;;;;12.99;8.33;;;;;;;;;;352163;150;858940;-58
2021/07/10 03:30:42;;;;;;;17.73;7.89;;;;;;;;;;351834;151;858996;-59
2021/07/10 03:31:44;;;;;;;16.85;9.15;;;;;;;;;;352032;151;858862;-61
2021/07/10 03:32:45;;;;;;;17.29;8.94;;;;;;;;;;350311;151;858416;-56
2021/07/10 03:33:47;;;;;;;21.06;9.06;;;;;;;;;;349836;150;857409;-59
2021/07/10 03:34:49;;;;;;;19.04;8.82;;;;;;;;;;350956;150;857345;-58
2021/07/10 03:35:50;;;;;;;12.27;8.06;;;;;;;;;;354522;150;857346;-58
2021/07/10 03:36:52;;;;;;;17.46;9.55;;;;;;;;;;351173;150;864919;-58
2021/07/10 03:37:54;;;;;;;20.65;9.09;;;;;;;;;;351910;151;859129;-60
2021/07/10 03:38:55;;;;;;;19.39;9.30;;;;;;;;;;353858;150;859294;-58
2021/07/10 03:39:57;;;;;;;18.14;9.24;;;;;;;;;;356212;150;868582;-57
2021/07/10 03:40:58;;;;;;;16.82;9.13;;;;;;;;;;352740;150;859393;-60
2021/07/10 03:42:00;;;;;;;13.43;7.89;;;;;;;;;;350942;150;866535;-59
2021/07/10 03:43:04;;;;;;;13.95;8.29;;;;;;;;;;354287;150;859019;-59
2021/07/10 03:44:05;;;;;;;17.04;8.85;;;;;;;;;;350888;151;858294;-58
2021/07/10 03:45:08;;;;;;;17.96;8.84;;;;;;;;;;352214;150;858142;-60
2021/07/10 03:46:10;;;;;;;18.87;8.74;;;;;;;;;;352739;150;857881;-59
2021/07/10 03:47:12;;;;;;;14.67;8.92;;;;;;;;;;352435;150;859181;-63
2021/07/10 03:48:13;;;;;;;14.04;8.13;;;;;;;;;;349740;151;857374;-61
2021/07/10 03:49:15;;;;;;;14.47;8.38;;;;;;;;;;351763;151;864969;-61
2021/07/10 03:50:18;;;;;;;14.96;8.14;;;;;;;;;;349550;152;857281;-61
2021/07/10 03:51:19;;;;;;;14.84;7.70;;;;;;;;;;345531;153;857299;-59
2021/07/10 03:52:21;;;;;;;11.92;7.41;;;;;;;;;;345743;153;857329;-59
2021/07/10 03:53:22;;;;;;;13.01;8.11;;;;;;;;;;347039;154;858946;-61
2021/07/10 03:54:24;;;;;;;13.36;8.13;;;;;;;;;;346228;153;857555;-59
2021/07/10 03:55:26;;;;;;;17.93;8.08;;;;;;;;;;346317;154;859242;-60
2021/07/10 03:56:28;;;;;;;14.73;7.55;;;;;;;;;;346235;154;859025;-62
2021/07/10 03:57:30;;;;;;;13.03;7.52;;;;;;;;;;346223;151;865938;-64
2021/07/10 03:58:31;;;;;;;10.30;7.14;;;;;;;;;;345862;152;865946;-63
2021/07/10 03:59:33;;;;;;;12.55;7.55;;;;;;;;;;346918;153;859082;-64
2021/07/10 04:00:37;;;;;;;13.03;7.17;;;;;;;;;;347088;155;865488;-62
2021/07/10 04:01:41;;;;;;;12.46;6.85;;;;;;;;;;340474;155;857428;-66
2021/07/10 04:02:43;;;;;;;12.31;7.20;;;;;;;;;;339315;156;857286;-65
2021/07/10 04:03:44;;;;;;;15.59;7.55;;;;;;;;;;340498;155;857710;-61
2021/07/10 04:04:46;;;;;;;18.23;7.96;;;;;;;;;;347122;153;857286;-63
2021/07/10 04:05:47;;;;;;;13.92;8.30;;;;;;;;;;345981;152;857346;-63
2021/07/10 04:06:50;;;;;;;10.27;7.22;;;;;;;;;;346740;153;866711;-65
2021/07/10 04:07:51;;;;;;;14.04;8.03;;;;;;;;;;346324;155;857115;-62
2021/07/10 04:08:53;;;;;;;14.66;7.51;;;;;;;;;;345930;151;858796;-62
2021/07/10 04:09:54;;;;;;;14.96;7.61;;;;;;;;;;347158;152;858029;-60
2021/07/10 04:10:56;;;;;;;10.36;7.20;;;;;;;;;;346594;152;866784;-63
2021/07/10 04:11:58;;;;;;;9.65;6.70;;;;;;;;;;347976;153;865906;-63
2021/07/10 04:13:00;;;;;;;10.24;6.97;;;;;;;;;;346640;153;857363;-60
2021/07/10 04:14:01;;;;;;;10.80;6.81;;;;;;;;;;345475;153;857213;-61
2021/07/10 04:15:03;;;;;;;13.91;7.44;;;;;;;;;;345304;155;864902;-60
2021/07/10 04:16:05;;;;;;;11.79;6.69;;;;;;;;;;346833;151;857914;-61
2021/07/10 04:17:07;;;;;;;16.19;7.27;;;;;;;;;;346114;153;858655;-61
2021/07/10 04:18:09;;;;;;;11.04;7.23;;;;;;;;;;346664;155;857782;-61
2021/07/10 04:19:10;;;;;;;13.85;7.74;;;;;;;;;;343762;154;857292;-61
2021/07/10 04:20:13;;;;;;;12.27;7.99;;;;;;;;;;345592;153;857730;-62
2021/07/10 04:21:15;;;;;;;17.71;8.01;;;;;;;;;;347310;153;864985;-63
2021/07/10 04:22:16;;;;;;;16.01;8.34;;;;;;;;;;347749;154;858186;-62
2021/07/10 04:23:18;;;;;;;18.54;8.34;;;;;;;;;;346281;152;857398;-64
2021/07/10 04:24:20;;;;;;;13.25;8.01;;;;;;;;;;346990;153;857253;-63
2021/07/10 04:25:21;;;;;;;16.66;8.41;;;;;;;;;;347216;153;864944;-64
2021/07/10 04:26:24;;;;;;;15.79;8.21;;;;;;;;;;346834;153;857288;-64
2021/07/10 04:27:26;;;;;;;12.96;8.62;;;;;;;;;;345448;152;864975;-64
2021/07/10 04:28:27;;;;;;;12.80;7.69;;;;;;;;;;347241;153;859020;-62
2021/07/10 04:29:29;;;;;;;14.95;7.86;;;;;;;;;;346380;155;859146;-62
2021/07/10 04:30:31;;;;;;;18.30;7.73;;;;;;;;;;347775;152;857558;-61
2021/07/10 04:31:32;;;;;;;14.04;7.11;;;;;;;;;;346151;153;858339;-62
2021/07/10 04:32:34;;;;;;;13.12;7.43;;;;;;;;;;344665;156;858537;-63
2021/07/10 04:33:36;;;;;;;11.10;7.30;;;;;;;;;;346802;152;857394;-62
2021/07/10 04:34:37;;;;;;;10.72;6.55;;;;;;;;;;345386;153;857367;-63
2021/07/10 04:35:39;;;;;;;13.84;7.33;;;;;;;;;;346904;153;864855;-65
2021/07/10 04:36:42;;;;;;;9.49;6.92;;;;;;;;;;341992;154;857397;-62
2021/07/10 04:37:44;;;;;;;9.60;6.77;;;;;;;;;;346434;152;857791;-61
2021/07/10 04:38:46;;;;;;;13.61;6.71;;;;;;;;;;346461;153;865730;-63
2021/07/10 04:39:47;;;;;;;9.82;6.51;;;;;;;;;;346664;155;859935;-61
2021/07/10 04:40:50;;;;;;;11.97;7.74;;;;;;;;;;347292;152;857310;-62
2021/07/10 04:41:51;;;;;;;12.07;7.24;;;;;;;;;;345045;152;867019;-62
2021/07/10 04:42:53;;;;;;;16.41;7.10;;;;;;;;;;344811;153;858050;-64
2021/07/10 04:43:55;;;;;;;13.94;6.91;;;;;;;;;;345458;155;857426;-62
2021/07/10 04:44:56;;;;;;;15.13;7.12;;;;;;;;;;347080;151;857744;-62
2021/07/10 04:45:58;;;;;;;9.18;7.10;;;;;;;;;;346545;152;859072;-61
2021/07/10 04:47:00;;;;;;;8.80;6.67;;;;;;;;;;351460;152;858978;-62
2021/07/10 04:48:02;;;;;;;11.04;6.64;;;;;;;;;;347412;151;859491;-61
2021/07/10 04:49:03;;;;;;;13.28;7.08;;;;;;;;;;346862;152;858450;-60
2021/07/10 04:50:05;;;;;;;11.31;6.31;;;;;;;;;;345012;155;864910;-61
2021/07/10 04:51:07;;;;;;;17.60;6.39;;;;;;;;;;350643;150;857406;-61
2021/07/10 04:52:08;;;;;;;11.63;6.17;;;;;;;;;;349568;150;865116;-62
2021/07/10 04:53:10;;;;;;;13.56;6.06;;;;;;;;;;352413;150;857260;-64
2021/07/10 04:54:11;;;;;;;9.79;5.74;;;;;;;;;;352896;150;857306;-62
2021/07/10 04:55:14;;;;;;;8.51;5.45;;;;;;;;;;351908;149;859222;-62
2021/07/10 04:56:16;;;;;;;6.85;4.93;;;;;;;;;;353188;149;857436;-62
2021/07/10 04:57:18;;;;;;;11.10;5.58;;;;;;;;;;354875;150;857579;-61
2021/07/10 04:58:19;;;;;;;12.37;5.03;;;;;;;;;;352655;151;857349;-60
2021/07/10 04:59:21;;;;;;;13.21;5.02;;;;;;;;;;347488;150;859064;-66
2021/07/10 05:00:24;;;;;;;14.49;5.71;;;;;;;;;;349265;152;858241;-64
2021/07/10 05:01:26;;;;;;;11.21;5.11;;;;;;;;;;354132;150;860569;-64
2021/07/10 05:02:27;;;;;;;11.45;5.02;;;;;;;;;;354586;148;859198;-64
2021/07/10 05:03:30;;;;;;;8.79;5.11;;;;;;;;;;353008;149;865985;-66
2021/07/10 05:04:32;;;;;;;11.63;4.40;;;;;;;;;;350908;150;859669;-62
2021/07/10 05:05:33;;;;;;;11.63;4.74;;;;;;;;;;349806;152;858591;-63
2021/07/10 05:06:37;;;;;;;9.93;5.26;;;;;;;;;;347992;150;856347;-61
2021/07/10 05:07:38;;;;;;;7.41;4.59;;;;;;;;;;352559;149;861710;-62
2021/07/10 05:08:40;;;;;;;11.59;4.84;;;;;;;;;;352224;150;858995;-60
2021/07/10 05:09:41;;;;;;;7.31;4.44;;;;;;;;;;351986;149;858166;-60
2021/07/10 05:10:45;;;;;;;9.59;4.45;;;;;;;;;;352773;149;865082;-61
2021/07/10 05:11:47;;;;;;;8.47;4.26;;;;;;;;;;351670;151;857326;-61
2021/07/10 05:12:49;;;;;;;13.63;4.35;;;;;;;;;;355959;144;857271;-65
2021/07/10 05:13:50;;;;;;;8.63;4.36;;;;;;;;;;361424;145;857432;-61
2021/07/10 05:14:52;;;;;;;7.71;4.60;;;;;;;;;;357850;148;858424;-62
2021/07/10 05:15:54;;;;;;;11.04;4.42;;;;;;;;;;359591;147;857983;-62
2021/07/10 05:16:56;;;;;;;10.27;4.40;;;;;;;;;;360169;146;857384;-60
2021/07/10 05:17:58;;;;;;;5.78;4.13;;;;;;;;;;359526;148;857421;-61
2021/07/10 05:19:00;;;;;;;7.37;4.30;;;;;;;;;;360640;146;857355;-60
2021/07/10 05:20:02;;;;;;;12.27;4.32;;;;;;;;;;357829;150;858579;-62
2021/07/10 05:21:04;;;;;;;7.81;4.43;;;;;;;;;;355262;148;860653;-61
2021/07/10 05:22:05;;;;;;;5.71;4.16;;;;;;;;;;353302;150;857422;-61
2021/07/10 05:23:07;;;;;;;15.26;4.08;;;;;;;;;;353389;151;864782;-64
2021/07/10 05:24:09;;;;;;;9.87;4.26;;;;;;;;;;350700;147;865000;-60
2021/07/10 05:25:10;;;;;;;5.97;4.14;;;;;;;;;;353756;150;857358;-60
2021/07/10 05:26:14;;;;;;;11.06;4.08;;;;;;;;;;352248;152;857306;-61
2021/07/10 05:27:15;;;;;;;7.72;4.22;;;;;;;;;;352687;150;865149;-61
2021/07/10 05:28:17;;;;;;;7.57;4.91;;;;;;;;;;354004;150;857406;-63
2021/07/10 05:29:19;;;;;;;8.68;3.99;;;;;;;;;;354155;150;857399;-59
2021/07/10 05:30:21;;;;;;;6.20;4.16;;;;;;;;;;351107;150;857810;-62
2021/07/10 05:31:23;;;;;;;7.95;4.02;;;;;;;;;;350162;151;859414;-60
2021/07/10 05:32:24;;;;;;;7.26;4.12;;;;;;;;;;351569;150;858123;-62
2021/07/10 05:33:26;;;;;;;5.44;4.11;;;;;;;;;;345623;150;857879;-60
2021/07/10 05:34:27;;;;;;;25.52;15.36;;;;;;;;;;349697;153;857929;-60
2021/07/10 05:35:30;;;;;;;9.19;5.55;;;;;;;;;;351431;150;857455;-60
2021/07/10 05:36:32;;;;;;;9.13;4.54;;;;;;;;;;351155;153;857409;-60
2021/07/10 05:37:33;;;;;;;9.58;4.64;;;;;;;;;;350298;151;857614;-61
2021/07/10 05:38:35;;;;;;;8.33;4.54;;;;;;;;;;349400;150;857407;-60
2021/07/10 05:39:38;;;;;;;8.55;4.46;;;;;;;;;;349976;150;856768;-60
2021/07/10 05:40:42;;;;;;;8.62;4.11;;;;;;;;;;349555;150;866625;-60
2021/07/10 05:41:43;;;;;;;8.32;4.17;;;;;;;;;;350274;150;857246;-61
2021/07/10 05:42:48;;;;;;;9.26;4.34;;;;;;;;;;344127;153;858703;-61
2021/07/10 05:43:49;;;;;;;9.57;4.79;;;;;;;;;;354308;150;865069;-62
2021/07/10 05:44:51;;;;;;;9.69;4.16;;;;;;;;;;356914;149;857944;-59
2021/07/10 05:45:53;;;;;;;10.16;4.86;;;;;;;;;;356551;148;857455;-60